Airfield :







YOU CAN JOIN US ON...

 
LOGIN :

Register | Disclaimer

   EN    FR    IT 

 









Legend :    VFR   Marginal VFR   IFR   Intensive IFR   Very Intensive IFR
Visi :
Ceiling :
>= 8 km
>= 3000ft
5 to 8 km
1000 to 3000 ft
1500m to 5 km
500 to 1000 ft
800 to 1500m
200 to 500 ft
< 800m
< 200 ft
Symbols :   Thunderstorms  Fog  Heavy snow  Heavy precipitations  Wind > 20 kt






- Airport Elevation : 454 ft


KIZG - Eastern Slopes Regional

CURRENT METAR :
  • 151154Z AUTO 28010G23KT 240V300 10SM BKN055 05/M03 A2921 RMK AO2 SLP896 70111 T00501028 10078 20039 53035

EXPIRED METARs :
  • 151054Z AUTO VRB03KT 10SM OVC048 04/M02 A2917 RMK AO2 SLP883 T00441017
  • 150954Z AUTO 21009G20KT 10SM BKN048 04/M02 A2913 RMK AO2 SLP869 T00391017

TAF N/A



MET'MAP, your aeronautical weather chart ! - Copyright ORBIFLY December 2007 - Disclaimer

ORBIFLY MET'MAP TEAM :

Programming & Development : Alexandra Zaïnal
Concept & original design : Baudouin d'Aumeries
Assistance for programming : Marc-Olivier Méhu
Technical & hardware support : Manuel Goepfert

Contact : metmap@orbifly.com




SOURCES & CREDITS :

   NOAA